createdAt,value
2018-07-10T00:00:39.944Z,1018.83
2018-07-10T00:02:07.399Z,1018.84
2018-07-10T00:03:34.851Z,1018.84
2018-07-10T00:05:02.153Z,1018.83
2018-07-10T00:06:29.395Z,1018.80
2018-07-10T00:07:56.919Z,1018.79
2018-07-10T00:09:24.506Z,1018.76
2018-07-10T00:10:52.089Z,1018.74
2018-07-10T00:12:19.409Z,1018.73
2018-07-10T00:13:46.936Z,1018.74
2018-07-10T00:15:14.230Z,1018.76
2018-07-10T00:16:41.758Z,1018.78
2018-07-10T00:18:09.087Z,1018.78
2018-07-10T00:19:36.096Z,1018.77
2018-07-10T00:21:03.635Z,1018.76
2018-07-10T00:22:30.903Z,1018.76
2018-07-10T00:23:58.449Z,1018.73
2018-07-10T00:25:25.712Z,1018.74
2018-07-10T00:26:53.256Z,1018.74
2018-07-10T00:28:20.738Z,1018.77
2018-07-10T00:29:48.185Z,1018.74
2018-07-10T00:31:15.659Z,1018.72
2018-07-10T00:32:43.093Z,1018.70
2018-07-10T00:34:10.489Z,1018.66
2018-07-10T00:35:37.878Z,1018.65
2018-07-10T00:37:05.191Z,1018.58
2018-07-10T00:38:32.714Z,1018.56
2018-07-10T00:40:00.269Z,1018.57
2018-07-10T00:41:27.558Z,1018.61
2018-07-10T00:42:55.084Z,1018.64
2018-07-10T00:44:22.410Z,1018.66
2018-07-10T00:45:50.049Z,1018.69
2018-07-10T00:47:17.519Z,1018.69
2018-07-10T00:48:44.826Z,1018.65
2018-07-10T00:50:12.210Z,1018.65
2018-07-10T00:51:39.648Z,1018.69
2018-07-10T00:53:06.883Z,1018.70
2018-07-10T00:54:34.485Z,1018.74
2018-07-10T00:56:01.743Z,1018.77
2018-07-10T00:57:29.341Z,1018.79
2018-07-10T00:58:56.458Z,1018.77
2018-07-10T01:00:24.054Z,1018.77
2018-07-10T01:01:51.160Z,1018.75
2018-07-10T01:03:18.757Z,1018.70
2018-07-10T01:04:46.151Z,1018.71
2018-07-10T01:06:13.474Z,1018.71
2018-07-10T01:07:40.882Z,1018.71
2018-07-10T01:09:08.290Z,1018.70
2018-07-10T01:10:35.788Z,1018.68
2018-07-10T01:12:03.252Z,1018.67
2018-07-10T01:13:30.750Z,1018.69
2018-07-10T01:14:58.200Z,1018.69
2018-07-10T01:16:25.562Z,1018.70
2018-07-10T01:17:52.807Z,1018.70
2018-07-10T01:19:20.017Z,1018.71
2018-07-10T01:20:47.254Z,1018.72
2018-07-10T01:22:14.789Z,1018.73
2018-07-10T01:23:42.237Z,1018.72
2018-07-10T01:25:09.592Z,1018.70
2018-07-10T01:26:37.010Z,1018.70
2018-07-10T01:28:04.136Z,1018.69
2018-07-10T01:29:31.653Z,1018.66
2018-07-10T01:30:59.118Z,1018.65
2018-07-10T01:32:26.445Z,1018.63
2018-07-10T01:33:53.754Z,1018.57
2018-07-10T01:35:21.215Z,1018.55
2018-07-10T01:36:48.716Z,1018.55
2018-07-10T01:38:15.961Z,1018.55
2018-07-10T01:39:43.263Z,1018.56
2018-07-10T01:41:10.607Z,1018.54
2018-07-10T01:42:37.870Z,1018.52
2018-07-10T01:44:05.416Z,1018.55
2018-07-10T01:45:32.733Z,1018.55
2018-07-10T01:47:00.400Z,1018.57
2018-07-10T01:48:27.699Z,1018.56
2018-07-10T01:49:55.202Z,1018.56
2018-07-10T01:51:22.566Z,1018.54
2018-07-10T01:52:50.611Z,1018.51
2018-07-10T01:54:17.376Z,1018.47
2018-07-10T01:55:44.608Z,1018.46
2018-07-10T01:57:12.170Z,1018.49
2018-07-10T01:58:39.482Z,1018.46
2018-07-10T02:00:06.919Z,1018.48
2018-07-10T02:01:34.250Z,1018.48
2018-07-10T02:03:01.723Z,1018.49
2018-07-10T02:04:28.981Z,1018.49
2018-07-10T02:05:56.331Z,1018.51
2018-07-10T02:07:23.685Z,1018.51
2018-07-10T02:08:51.124Z,1018.50
2018-07-10T02:10:18.558Z,1018.49
2018-07-10T02:11:46.006Z,1018.46
2018-07-10T02:13:13.442Z,1018.45
2018-07-10T02:14:40.944Z,1018.46
2018-07-10T02:16:08.590Z,1018.41
2018-07-10T02:17:35.939Z,1018.35
2018-07-10T02:19:03.283Z,1018.32
2018-07-10T02:20:30.648Z,1018.31
2018-07-10T02:21:57.998Z,1018.32
2018-07-10T02:23:25.384Z,1018.34
2018-07-10T02:24:52.898Z,1018.37
2018-07-10T02:26:20.301Z,1018.39
2018-07-10T02:27:47.673Z,1018.38
2018-07-10T02:29:14.859Z,1018.42
2018-07-10T02:30:42.384Z,1018.40
2018-07-10T02:32:09.571Z,1018.39
2018-07-10T02:33:36.631Z,1018.39
2018-07-10T02:35:04.079Z,1018.39
2018-07-10T02:36:31.429Z,1018.39
2018-07-10T02:37:58.853Z,1018.41
2018-07-10T02:39:26.221Z,1018.41
2018-07-10T02:40:53.585Z,1018.39
2018-07-10T02:42:20.979Z,1018.38
2018-07-10T02:43:48.433Z,1018.36
2018-07-10T02:45:15.806Z,1018.35
2018-07-10T02:46:43.138Z,1018.36
2018-07-10T02:48:10.464Z,1018.37
2018-07-10T02:49:37.965Z,1018.33
2018-07-10T02:51:05.570Z,1018.36
2018-07-10T02:52:32.939Z,1018.38
2018-07-10T02:54:00.215Z,1018.39
2018-07-10T02:55:27.653Z,1018.41
2018-07-10T02:56:55.220Z,1018.41
2018-07-10T02:58:22.606Z,1018.40
2018-07-10T02:59:49.983Z,1018.46
2018-07-10T03:01:17.377Z,1018.51
2018-07-10T03:02:44.794Z,1018.54
2018-07-10T03:04:12.295Z,1018.54
2018-07-10T03:05:39.447Z,1018.55
2018-07-10T03:07:06.710Z,1018.56
2018-07-10T03:08:34.292Z,1018.56
2018-07-10T03:10:00.912Z,1018.58
2018-07-10T03:11:28.316Z,1018.60
2018-07-10T03:12:56.055Z,1018.60
2018-07-10T03:14:23.511Z,1018.59
2018-07-10T03:15:50.873Z,1018.59
2018-07-10T03:17:18.552Z,1018.59
2018-07-10T03:18:45.993Z,1018.62
2018-07-10T03:20:13.371Z,1018.64
2018-07-10T03:21:40.776Z,1018.63
2018-07-10T03:23:08.200Z,1018.63
2018-07-10T03:24:35.569Z,1018.63
2018-07-10T03:26:02.989Z,1018.61
2018-07-10T03:27:30.300Z,1018.63
2018-07-10T03:28:57.740Z,1018.64
2018-07-10T03:30:24.991Z,1018.65
2018-07-10T03:31:52.425Z,1018.65
2018-07-10T03:33:19.597Z,1018.65
2018-07-10T03:34:46.928Z,1018.63
2018-07-10T03:36:14.400Z,1018.62
2018-07-10T03:37:41.820Z,1018.63
2018-07-10T03:39:09.049Z,1018.63
2018-07-10T03:40:36.407Z,1018.63
2018-07-10T03:42:03.847Z,1018.61
2018-07-10T03:43:31.228Z,1018.62
2018-07-10T03:44:58.645Z,1018.63
2018-07-10T03:46:25.685Z,1018.62
2018-07-10T03:47:53.253Z,1018.62
2018-07-10T03:49:20.694Z,1018.62
2018-07-10T03:50:47.865Z,1018.66
2018-07-10T03:52:15.335Z,1018.65
2018-07-10T03:53:42.699Z,1018.64
2018-07-10T03:55:10.146Z,1018.64
2018-07-10T03:56:37.222Z,1018.63
2018-07-10T03:58:04.626Z,1018.64
2018-07-10T03:59:32.158Z,1018.66
2018-07-10T04:00:59.433Z,1018.64
2018-07-10T04:02:26.724Z,1018.66
2018-07-10T04:03:54.118Z,1018.69
2018-07-10T04:05:21.294Z,1018.70
2018-07-10T04:06:48.826Z,1018.69
2018-07-10T04:08:16.166Z,1018.68
2018-07-10T04:09:43.511Z,1018.68
2018-07-10T04:11:10.641Z,1018.72
2018-07-10T04:12:38.117Z,1018.73
2018-07-10T04:14:05.644Z,1018.72
2018-07-10T04:15:32.961Z,1018.73
2018-07-10T04:17:00.057Z,1018.73
2018-07-10T04:18:27.532Z,1018.72
2018-07-10T04:19:55.126Z,1018.71
2018-07-10T04:21:22.384Z,1018.72
2018-07-10T04:22:49.639Z,1018.74
2018-07-10T04:24:17.136Z,1018.75
2018-07-10T04:25:44.700Z,1018.72
2018-07-10T04:27:11.948Z,1018.71
2018-07-10T04:28:39.362Z,1018.68
2018-07-10T04:30:06.618Z,1018.67
2018-07-10T04:31:34.939Z,1018.67
2018-07-10T04:33:01.424Z,1018.65
2018-07-10T04:34:28.538Z,1018.66
2018-07-10T04:35:56.068Z,1018.66
2018-07-10T04:37:23.435Z,1018.67
2018-07-10T04:38:50.838Z,1018.67
2018-07-10T04:40:18.225Z,1018.71
2018-07-10T04:41:45.638Z,1018.69
2018-07-10T04:43:13.042Z,1018.69
2018-07-10T04:44:40.240Z,1018.70
2018-07-10T04:46:07.693Z,1018.72
2018-07-10T04:47:35.058Z,1018.72
2018-07-10T04:49:02.477Z,1018.75
2018-07-10T04:50:29.671Z,1018.73
2018-07-10T04:51:57.255Z,1018.71
2018-07-10T04:53:24.435Z,1018.70
2018-07-10T04:54:51.993Z,1018.72
2018-07-10T04:56:19.349Z,1018.74
2018-07-10T04:57:47.028Z,1018.75
2018-07-10T04:59:14.265Z,1018.75
2018-07-10T05:00:41.621Z,1018.79
2018-07-10T05:02:08.828Z,1018.77
2018-07-10T05:03:36.415Z,1018.77
2018-07-10T05:05:03.889Z,1018.77
2018-07-10T05:06:31.293Z,1018.77
2018-07-10T05:07:58.440Z,1018.77
2018-07-10T05:09:25.888Z,1018.75
2018-07-10T05:10:53.407Z,1018.74
2018-07-10T05:12:20.730Z,1018.77
2018-07-10T05:13:48.217Z,1018.74
2018-07-10T05:15:15.512Z,1018.73
2018-07-10T05:16:43.012Z,1018.72
2018-07-10T05:18:10.299Z,1018.71
2018-07-10T05:19:37.770Z,1018.69
2018-07-10T05:21:04.751Z,1018.69
2018-07-10T05:22:32.034Z,1018.72
2018-07-10T05:23:59.451Z,1018.69
2018-07-10T05:25:26.678Z,1018.68
2018-07-10T05:26:53.913Z,1018.69
2018-07-10T05:28:21.452Z,1018.66
2018-07-10T05:29:49.038Z,1018.63
2018-07-10T05:31:16.379Z,1018.62
2018-07-10T05:32:43.786Z,1018.60
2018-07-10T05:34:11.247Z,1018.62
2018-07-10T05:35:38.695Z,1018.63
2018-07-10T05:37:06.240Z,1018.63
2018-07-10T05:38:33.445Z,1018.64
2018-07-10T05:40:00.943Z,1018.63
2018-07-10T05:41:28.319Z,1018.61
2018-07-10T05:42:55.793Z,1018.61
2018-07-10T05:44:23.311Z,1018.64
2018-07-10T05:45:50.750Z,1018.64
2018-07-10T05:47:18.016Z,1018.64
2018-07-10T05:48:45.595Z,1018.58
2018-07-10T05:50:12.789Z,1018.59
2018-07-10T05:51:40.113Z,1018.59
2018-07-10T05:53:07.432Z,1018.61
2018-07-10T05:54:34.823Z,1018.59
2018-07-10T05:56:02.184Z,1018.56
2018-07-10T05:57:29.794Z,1018.57
2018-07-10T05:58:57.203Z,1018.58
2018-07-10T06:00:24.779Z,1018.53
2018-07-10T06:01:52.330Z,1018.50
2018-07-10T06:03:19.449Z,1018.51
2018-07-10T06:04:46.873Z,1018.46
2018-07-10T06:06:14.118Z,1018.42
2018-07-10T06:07:41.634Z,1018.40
2018-07-10T06:09:09.138Z,1018.39
2018-07-10T06:10:36.773Z,1018.38
2018-07-10T06:12:03.967Z,1018.43
2018-07-10T06:13:31.495Z,1018.46
2018-07-10T06:14:59.056Z,1018.49
2018-07-10T06:16:26.623Z,1018.53
2018-07-10T06:17:54.018Z,1018.55
2018-07-10T06:19:21.470Z,1018.55
2018-07-10T06:20:48.876Z,1018.56
2018-07-10T06:22:16.266Z,1018.52
2018-07-10T06:23:43.894Z,1018.52
2018-07-10T06:25:11.091Z,1018.54
2018-07-10T06:26:38.460Z,1018.55
2018-07-10T06:28:06.026Z,1018.59
2018-07-10T06:29:33.381Z,1018.60
2018-07-10T06:31:00.564Z,1018.58
2018-07-10T06:32:28.062Z,1018.58
2018-07-10T06:33:55.488Z,1018.61
2018-07-10T06:35:23.049Z,1018.57
2018-07-10T06:36:50.708Z,1018.58
2018-07-10T06:38:17.887Z,1018.57
2018-07-10T06:39:45.408Z,1018.54
2018-07-10T06:41:12.646Z,1018.55
2018-07-10T06:42:40.327Z,1018.53
2018-07-10T06:44:07.675Z,1018.52
2018-07-10T06:45:35.299Z,1018.54
2018-07-10T06:47:02.677Z,1018.57
2018-07-10T06:48:30.097Z,1018.56
2018-07-10T06:49:57.765Z,1018.56
2018-07-10T06:51:25.137Z,1018.56
2018-07-10T06:52:52.744Z,1018.52
2018-07-10T06:54:20.318Z,1018.51
2018-07-10T06:55:47.972Z,1018.50
2018-07-10T06:57:15.543Z,1018.47
2018-07-10T06:58:43.213Z,1018.49
2018-07-10T07:00:10.730Z,1018.43
2018-07-10T07:01:38.116Z,1018.41
2018-07-10T07:03:05.911Z,1018.41
2018-07-10T07:04:33.355Z,1018.42
2018-07-10T07:06:00.807Z,1018.46
2018-07-10T07:07:28.550Z,1018.45
2018-07-10T07:08:56.041Z,1018.45
2018-07-10T07:10:23.589Z,1018.50
2018-07-10T07:11:51.086Z,1018.48
2018-07-10T07:13:18.606Z,1018.51
2018-07-10T07:14:46.011Z,1018.49
2018-07-10T07:16:13.736Z,1018.49
2018-07-10T07:17:41.214Z,1018.47
2018-07-10T07:19:08.663Z,1018.50
2018-07-10T07:20:36.071Z,1018.51
2018-07-10T07:22:03.494Z,1018.53
2018-07-10T07:23:31.226Z,1018.53
2018-07-10T07:24:58.730Z,1018.52
2018-07-10T07:26:26.222Z,1018.50
2018-07-10T07:27:53.733Z,1018.51
2018-07-10T07:29:21.462Z,1018.51
2018-07-10T07:30:48.899Z,1018.53
2018-07-10T07:32:16.502Z,1018.57
2018-07-10T07:33:44.161Z,1018.58
2018-07-10T07:35:11.669Z,1018.59
2018-07-10T07:36:39.129Z,1018.57
2018-07-10T07:38:06.579Z,1018.55
2018-07-10T07:39:34.135Z,1018.56
2018-07-10T07:41:01.865Z,1018.54
2018-07-10T07:42:29.435Z,1018.62
2018-07-10T07:43:57.841Z,1018.64
2018-07-10T07:45:24.197Z,1018.63
2018-07-10T07:46:51.769Z,1018.71
2018-07-10T07:48:19.216Z,1018.71
2018-07-10T07:49:46.650Z,1018.72
2018-07-10T07:51:14.254Z,1018.76
2018-07-10T07:52:41.865Z,1018.78
2018-07-10T07:54:09.160Z,1018.82
2018-07-10T07:55:36.470Z,1018.80
2018-07-10T07:57:03.868Z,1018.79
2018-07-10T07:58:31.478Z,1018.80
2018-07-10T07:59:58.998Z,1018.77
2018-07-10T08:01:26.545Z,1018.80
2018-07-10T08:02:53.952Z,1018.81
2018-07-10T08:04:21.328Z,1018.77
2018-07-10T08:05:48.950Z,1018.80
2018-07-10T08:07:16.322Z,1018.79
2018-07-10T08:08:43.696Z,1018.79
2018-07-10T08:10:11.374Z,1018.76
2018-07-10T08:11:38.715Z,1018.75
2018-07-10T08:13:06.231Z,1018.69
2018-07-10T08:14:33.592Z,1018.63
2018-07-10T08:16:01.003Z,1018.59
2018-07-10T08:17:28.507Z,1018.57
2018-07-10T08:18:56.075Z,1018.58
2018-07-10T08:20:23.642Z,1018.63
2018-07-10T08:21:50.953Z,1018.64
2018-07-10T08:23:18.540Z,1018.64
2018-07-10T08:24:45.895Z,1018.66
2018-07-10T08:26:13.617Z,1018.66
2018-07-10T08:27:41.088Z,1018.70
2018-07-10T08:29:08.508Z,1018.77
2018-07-10T08:30:35.760Z,1018.68
2018-07-10T08:32:03.269Z,1018.67
2018-07-10T08:33:30.843Z,1018.65
2018-07-10T08:34:58.161Z,1018.67
2018-07-10T08:36:25.674Z,1018.64
2018-07-10T08:37:53.318Z,1018.62
2018-07-10T08:39:20.586Z,1018.68
2018-07-10T08:40:48.063Z,1018.63
2018-07-10T08:42:15.534Z,1018.69
2018-07-10T08:43:42.816Z,1018.66
2018-07-10T08:45:10.225Z,1018.65
2018-07-10T08:46:37.668Z,1018.60
2018-07-10T08:48:05.138Z,1018.61
2018-07-10T08:49:32.647Z,1018.63
2018-07-10T08:51:00.088Z,1018.66
2018-07-10T08:52:27.843Z,1018.62
2018-07-10T08:53:55.145Z,1018.64
2018-07-10T08:55:22.889Z,1018.63
2018-07-10T08:56:50.276Z,1018.62
2018-07-10T08:58:17.852Z,1018.59
2018-07-10T08:59:45.296Z,1018.59
2018-07-10T09:01:12.746Z,1018.57
2018-07-10T09:02:40.286Z,1018.55
2018-07-10T09:04:07.473Z,1018.54
2018-07-10T09:05:34.672Z,1018.52
2018-07-10T09:07:02.288Z,1018.47
2018-07-10T09:08:29.900Z,1018.46
2018-07-10T09:09:57.265Z,1018.39
2018-07-10T09:11:24.758Z,1018.39
2018-07-10T09:12:52.274Z,1018.37
2018-07-10T09:14:19.595Z,1018.35
2018-07-10T09:15:47.112Z,1018.38
2018-07-10T09:17:14.529Z,1018.38
2018-07-10T09:18:42.066Z,1018.37
2018-07-10T09:20:09.615Z,1018.35
2018-07-10T09:21:37.155Z,1018.32
2018-07-10T09:23:04.775Z,1018.37
2018-07-10T09:24:32.239Z,1018.35
2018-07-10T09:25:59.632Z,1018.40
2018-07-10T09:27:27.135Z,1018.41
2018-07-10T09:28:54.597Z,1018.37
2018-07-10T09:30:21.968Z,1018.44
2018-07-10T09:31:49.385Z,1018.42
2018-07-10T09:33:16.975Z,1018.44
2018-07-10T09:34:44.436Z,1018.44
2018-07-10T09:36:12.021Z,1018.46
2018-07-10T09:37:39.510Z,1018.46
2018-07-10T09:39:07.012Z,1018.42
2018-07-10T09:40:34.674Z,1018.46
2018-07-10T09:42:02.346Z,1018.46
2018-07-10T09:43:29.893Z,1018.48
2018-07-10T09:44:57.403Z,1018.49
2018-07-10T09:46:24.863Z,1018.51
2018-07-10T09:47:52.186Z,1018.55
2018-07-10T09:49:19.619Z,1018.57
2018-07-10T09:50:47.168Z,1018.55
2018-07-10T09:52:14.492Z,1018.57
2018-07-10T09:53:42.087Z,1018.62
2018-07-10T09:55:09.612Z,1018.65
2018-07-10T09:56:37.141Z,1018.66
2018-07-10T09:58:04.908Z,1018.70
2018-07-10T09:59:32.545Z,1018.66
2018-07-10T10:01:00.139Z,1018.70
2018-07-10T10:02:27.630Z,1018.66
2018-07-10T10:03:55.004Z,1018.65
2018-07-10T10:05:22.527Z,1018.64
2018-07-10T10:06:49.996Z,1018.64
2018-07-10T10:08:17.373Z,1018.63
2018-07-10T10:09:44.781Z,1018.61
2018-07-10T10:11:12.194Z,1018.64
2018-07-10T10:12:39.587Z,1018.60
2018-07-10T10:14:07.019Z,1018.60
2018-07-10T10:15:34.232Z,1018.54
2018-07-10T10:17:01.688Z,1018.62
2018-07-10T10:18:29.353Z,1018.65
2018-07-10T10:19:56.734Z,1018.62
2018-07-10T10:21:24.146Z,1018.62
2018-07-10T10:22:51.702Z,1018.63
2018-07-10T10:24:19.225Z,1018.65
2018-07-10T10:25:46.722Z,1018.66
2018-07-10T10:27:14.148Z,1018.72
2018-07-10T10:28:41.249Z,1018.69
2018-07-10T10:30:08.724Z,1018.67
2018-07-10T10:31:36.078Z,1018.66
2018-07-10T10:33:03.368Z,1018.65
2018-07-10T10:34:30.981Z,1018.63
2018-07-10T10:35:58.611Z,1018.63
2018-07-10T10:37:25.919Z,1018.59
2018-07-10T10:38:53.572Z,1018.62
2018-07-10T10:40:20.996Z,1018.61
2018-07-10T10:41:48.691Z,1018.64
2018-07-10T10:43:16.129Z,1018.60
2018-07-10T10:44:43.851Z,1018.61
2018-07-10T10:46:10.910Z,1018.64
2018-07-10T10:47:38.432Z,1018.60
2018-07-10T10:49:06.094Z,1018.59
2018-07-10T10:50:33.558Z,1018.54
2018-07-10T10:52:01.197Z,1018.55
2018-07-10T10:53:28.797Z,1018.54
2018-07-10T10:54:56.255Z,1018.57
2018-07-10T10:56:23.726Z,1018.60
2018-07-10T10:57:51.369Z,1018.53
2018-07-10T10:59:18.788Z,1018.55
2018-07-10T11:00:46.341Z,1018.51
2018-07-10T11:02:13.950Z,1018.52
2018-07-10T11:03:41.324Z,1018.58
2018-07-10T11:05:08.848Z,1018.56
2018-07-10T11:06:36.315Z,1018.63
2018-07-10T11:08:03.985Z,1018.56
2018-07-10T11:09:31.333Z,1018.51
2018-07-10T11:10:58.826Z,1018.54
2018-07-10T11:12:26.401Z,1018.56
2018-07-10T11:13:54.061Z,1018.57
2018-07-10T11:15:21.666Z,1018.63
2018-07-10T11:16:49.126Z,1018.57
2018-07-10T11:18:16.668Z,1018.52
2018-07-10T11:19:44.076Z,1018.57
2018-07-10T11:21:11.701Z,1018.57
2018-07-10T11:22:39.176Z,1018.57
2018-07-10T11:24:06.585Z,1018.58
2018-07-10T11:25:33.868Z,1018.56
2018-07-10T11:27:01.483Z,1018.59
2018-07-10T11:28:29.221Z,1018.58
2018-07-10T11:29:56.630Z,1018.56
2018-07-10T11:31:23.973Z,1018.51
2018-07-10T11:32:51.542Z,1018.51
2018-07-10T11:34:19.081Z,1018.58
2018-07-10T11:35:46.823Z,1018.61
2018-07-10T11:37:14.251Z,1018.56
2018-07-10T11:38:41.663Z,1018.54
2018-07-10T11:40:09.253Z,1018.56
2018-07-10T11:41:36.613Z,1018.46
2018-07-10T11:43:03.979Z,1018.51
2018-07-10T11:44:31.445Z,1018.49
2018-07-10T11:45:59.214Z,1018.52
2018-07-10T11:47:26.793Z,1018.50
2018-07-10T11:48:54.422Z,1018.53
2018-07-10T11:50:21.849Z,1018.53
2018-07-10T11:51:49.457Z,1018.56
2018-07-10T11:53:17.031Z,1018.52
2018-07-10T11:54:44.590Z,1018.50
2018-07-10T11:56:12.008Z,1018.55
2018-07-10T11:57:39.432Z,1018.53
2018-07-10T11:59:06.932Z,1018.60
2018-07-10T12:00:34.417Z,1018.61
2018-07-10T12:02:02.118Z,1018.59
2018-07-10T12:03:29.594Z,1018.63
2018-07-10T12:04:57.505Z,1018.57
2018-07-10T12:06:24.949Z,1018.59
2018-07-10T12:07:52.678Z,1018.61
2018-07-10T12:09:20.194Z,1018.58
2018-07-10T12:10:47.798Z,1018.63
2018-07-10T12:12:15.424Z,1018.65
2018-07-10T12:13:42.825Z,1018.65
2018-07-10T12:15:10.464Z,1018.65
2018-07-10T12:16:37.970Z,1018.68
2018-07-10T12:18:05.393Z,1018.72
2018-07-10T12:19:32.938Z,1018.70
2018-07-10T12:21:00.377Z,1018.72
2018-07-10T12:22:27.786Z,1018.74
2018-07-10T12:23:55.407Z,1018.74
2018-07-10T12:25:22.777Z,1018.71
2018-07-10T12:26:50.464Z,1018.72
2018-07-10T12:28:17.971Z,1018.75
2018-07-10T12:29:45.366Z,1018.68
2018-07-10T12:31:12.928Z,1018.65
2018-07-10T12:32:40.356Z,1018.60
2018-07-10T12:34:07.737Z,1018.57
2018-07-10T12:35:35.210Z,1018.55
2018-07-10T12:37:02.705Z,1018.56
2018-07-10T12:38:30.082Z,1018.55
2018-07-10T12:39:57.514Z,1018.55
2018-07-10T12:41:25.234Z,1018.57
2018-07-10T12:42:52.811Z,1018.53
2018-07-10T12:44:20.219Z,1018.59
2018-07-10T12:45:47.807Z,1018.54
2018-07-10T12:47:15.253Z,1018.52
2018-07-10T12:48:42.901Z,1018.51
2018-07-10T12:50:10.417Z,1018.49
2018-07-10T12:51:37.982Z,1018.49
2018-07-10T12:53:05.573Z,1018.49
2018-07-10T12:54:33.224Z,1018.49
2018-07-10T12:56:00.537Z,1018.50
2018-07-10T12:57:28.053Z,1018.43
2018-07-10T12:58:55.656Z,1018.41
2018-07-10T13:00:23.270Z,1018.38
2018-07-10T13:01:50.667Z,1018.28
2018-07-10T13:03:18.230Z,1018.32
2018-07-10T13:04:45.871Z,1018.31
2018-07-10T13:06:13.338Z,1018.37
2018-07-10T13:34:54.759Z,1018.36
2018-07-10T13:36:22.094Z,1018.42
2018-07-10T13:37:49.656Z,1018.42
2018-07-10T13:39:16.982Z,1018.43
2018-07-10T13:40:44.694Z,1018.52
2018-07-10T13:42:12.304Z,1018.48
2018-07-10T13:43:39.780Z,1018.48
2018-07-10T13:45:07.254Z,1018.45
2018-07-10T13:46:34.640Z,1018.45
2018-07-10T13:48:02.129Z,1018.45
2018-07-10T13:49:29.703Z,1018.45
2018-07-10T13:50:57.149Z,1018.46
2018-07-10T13:52:24.644Z,1018.49
2018-07-10T13:53:52.094Z,1018.51
2018-07-10T13:55:19.513Z,1018.51
2018-07-10T13:56:47.157Z,1018.51
2018-07-10T13:58:14.631Z,1018.52
2018-07-10T13:59:42.315Z,1018.60
2018-07-10T14:01:09.908Z,1018.60
2018-07-10T14:02:37.486Z,1018.54
2018-07-10T14:04:05.125Z,1018.57
2018-07-10T14:05:32.649Z,1018.58
2018-07-10T14:07:00.001Z,1018.62
2018-07-10T14:08:27.496Z,1018.65
2018-07-10T14:09:55.018Z,1018.63
2018-07-10T14:11:22.603Z,1018.67
2018-07-10T14:12:50.153Z,1018.66
2018-07-10T14:14:17.644Z,1018.67
2018-07-10T14:15:45.201Z,1018.64
2018-07-10T14:17:12.500Z,1018.66
2018-07-10T14:18:40.056Z,1018.65
2018-07-10T14:20:07.591Z,1018.63
2018-07-10T14:21:35.230Z,1018.61
2018-07-10T14:23:02.700Z,1018.62
2018-07-10T14:24:30.127Z,1018.63
2018-07-10T14:25:57.555Z,1018.61
2018-07-10T14:27:25.211Z,1018.60
2018-07-10T14:28:52.944Z,1018.56
2018-07-10T14:30:20.473Z,1018.54
2018-07-10T14:31:48.011Z,1018.57
2018-07-10T14:33:15.539Z,1018.53
2018-07-10T14:34:43.010Z,1018.55
2018-07-10T14:36:10.484Z,1018.53
2018-07-10T14:37:38.051Z,1018.57
2018-07-10T14:39:05.436Z,1018.55
2018-07-10T14:40:32.995Z,1018.57
2018-07-10T14:42:00.405Z,1018.57
2018-07-10T14:43:27.877Z,1018.57
2018-07-10T14:44:55.300Z,1018.57
2018-07-10T14:46:23.040Z,1018.56
2018-07-10T14:47:50.607Z,1018.57
2018-07-10T14:49:18.068Z,1018.58
2018-07-10T14:50:45.813Z,1018.58
2018-07-10T14:52:13.453Z,1018.57
2018-07-10T14:53:41.023Z,1018.58
2018-07-10T14:55:08.522Z,1018.55
2018-07-10T14:56:36.169Z,1018.53
2018-07-10T14:58:03.557Z,1018.49
2018-07-10T14:59:30.753Z,1018.53
2018-07-10T15:00:58.313Z,1018.55
2018-07-10T15:02:25.881Z,1018.50
2018-07-10T15:03:53.036Z,1018.51
2018-07-10T15:05:20.675Z,1018.46
2018-07-10T15:06:48.135Z,1018.44
2018-07-10T15:08:15.981Z,1018.41
2018-07-10T15:09:43.443Z,1018.45
2018-07-10T15:11:10.998Z,1018.44
2018-07-10T15:12:38.612Z,1018.41
2018-07-10T15:14:06.091Z,1018.42
2018-07-10T15:15:33.750Z,1018.42
2018-07-10T15:17:01.251Z,1018.45
2018-07-10T15:18:28.854Z,1018.47
2018-07-10T15:19:56.339Z,1018.44
2018-07-10T15:21:23.647Z,1018.46
2018-07-10T15:22:51.298Z,1018.45
2018-07-10T15:24:18.896Z,1018.43
2018-07-10T15:25:46.178Z,1018.46
2018-07-10T15:27:13.850Z,1018.49
2018-07-10T15:28:41.325Z,1018.51
2018-07-10T15:30:09.812Z,1018.51
2018-07-10T15:31:36.330Z,1018.55
2018-07-10T15:33:03.978Z,1018.53
2018-07-10T15:34:31.471Z,1018.54
2018-07-10T15:35:59.100Z,1018.52
2018-07-10T15:37:26.373Z,1018.52
2018-07-10T15:38:53.973Z,1018.51
2018-07-10T15:40:21.324Z,1018.52
2018-07-10T15:41:49.124Z,1018.51
2018-07-10T15:43:16.542Z,1018.52
2018-07-10T15:44:43.970Z,1018.51
2018-07-10T15:46:11.609Z,1018.52
2018-07-10T15:47:39.155Z,1018.49
2018-07-10T15:49:06.733Z,1018.47
2018-07-10T15:50:34.223Z,1018.47
2018-07-10T15:52:01.780Z,1018.47
2018-07-10T15:53:29.148Z,1018.49
2018-07-10T15:54:56.786Z,1018.50
2018-07-10T15:56:24.323Z,1018.48
2018-07-10T15:57:51.902Z,1018.45
2018-07-10T15:59:19.341Z,1018.38
2018-07-10T16:00:46.670Z,1018.38
2018-07-10T16:02:13.934Z,1018.38
2018-07-10T16:03:41.465Z,1018.41
2018-07-10T16:05:08.958Z,1018.42
2018-07-10T16:06:36.341Z,1018.41
2018-07-10T16:08:04.005Z,1018.41
2018-07-10T16:09:31.397Z,1018.40
2018-07-10T16:10:58.986Z,1018.40
2018-07-10T16:12:26.537Z,1018.38
2018-07-10T16:13:54.030Z,1018.37
2018-07-10T16:15:21.501Z,1018.39
2018-07-10T16:16:49.136Z,1018.37
2018-07-10T16:18:16.649Z,1018.33
2018-07-10T16:19:44.206Z,1018.34
2018-07-10T16:21:11.751Z,1018.32
2018-07-10T16:22:39.074Z,1018.32
2018-07-10T16:24:06.721Z,1018.32
2018-07-10T16:25:34.197Z,1018.29
2018-07-10T16:27:01.825Z,1018.27
2018-07-10T16:28:29.214Z,1018.30
2018-07-10T16:29:56.334Z,1018.28
2018-07-10T16:31:23.865Z,1018.30
2018-07-10T16:32:51.196Z,1018.30
2018-07-10T16:34:18.782Z,1018.33
2018-07-10T16:35:46.285Z,1018.34
2018-07-10T16:37:14.108Z,1018.37
2018-07-10T16:38:41.370Z,1018.36
2018-07-10T16:40:08.833Z,1018.37
2018-07-10T16:41:36.134Z,1018.39
2018-07-10T16:43:03.496Z,1018.38
2018-07-10T16:44:31.131Z,1018.40
2018-07-10T16:45:58.389Z,1018.39
2018-07-10T16:47:25.675Z,1018.42
2018-07-10T16:48:53.242Z,1018.46
2018-07-10T16:50:20.825Z,1018.45
2018-07-10T16:51:48.132Z,1018.47
2018-07-10T16:53:15.698Z,1018.45
2018-07-10T16:54:43.080Z,1018.50
2018-07-10T16:56:10.654Z,1018.52
2018-07-10T16:57:37.957Z,1018.52
2018-07-10T16:59:05.446Z,1018.53
2018-07-10T17:00:32.991Z,1018.53
2018-07-10T17:02:00.542Z,1018.55
2018-07-10T17:03:27.952Z,1018.56
2018-07-10T17:04:54.968Z,1018.57
2018-07-10T17:06:22.476Z,1018.58
2018-07-10T17:07:49.646Z,1018.58
2018-07-10T17:09:17.163Z,1018.60
2018-07-10T17:10:44.767Z,1018.61
2018-07-10T17:12:12.323Z,1018.61
2018-07-10T17:13:39.813Z,1018.62
2018-07-10T17:15:07.098Z,1018.64
2018-07-10T17:16:34.373Z,1018.63
2018-07-10T17:18:01.795Z,1018.64
2018-07-10T17:19:29.446Z,1018.64
2018-07-10T17:20:56.806Z,1018.66
2018-07-10T17:22:24.136Z,1018.66
2018-07-10T17:23:51.670Z,1018.66
2018-07-10T17:25:19.209Z,1018.69
2018-07-10T17:26:46.594Z,1018.70
2018-07-10T17:28:14.173Z,1018.72
2018-07-10T17:29:41.578Z,1018.74
2018-07-10T17:31:09.044Z,1018.78
2018-07-10T17:32:36.571Z,1018.79
2018-07-10T17:34:03.965Z,1018.79
2018-07-10T17:35:31.523Z,1018.78
2018-07-10T17:36:58.801Z,1018.76
2018-07-10T17:38:26.249Z,1018.77
2018-07-10T17:39:53.621Z,1018.75
2018-07-10T17:41:21.081Z,1018.75
2018-07-10T17:42:48.223Z,1018.77
2018-07-10T17:44:15.793Z,1018.78
2018-07-10T17:45:43.260Z,1018.81
2018-07-10T17:47:10.734Z,1018.80
2018-07-10T17:48:38.062Z,1018.85
2018-07-10T17:50:05.640Z,1018.87
2018-07-10T17:51:33.074Z,1018.87
2018-07-10T17:53:00.622Z,1018.86
2018-07-10T17:54:28.160Z,1018.89
2018-07-10T17:55:55.608Z,1018.89
2018-07-10T17:57:22.958Z,1018.93
2018-07-10T17:58:50.570Z,1018.94
2018-07-10T18:00:18.113Z,1018.98
2018-07-10T18:01:45.741Z,1019.03
2018-07-10T18:03:13.143Z,1019.05
2018-07-10T18:04:40.596Z,1019.05